createdAt,value
2022-11-30T00:01:24.374Z,10.20
2022-11-30T00:03:56.672Z,10.20
2022-11-30T00:06:25.202Z,10.20
2022-11-30T00:08:57.523Z,10.20
2022-11-30T00:11:27.145Z,10.20
2022-11-30T00:13:54.846Z,10.10
2022-11-30T00:16:22.413Z,10.20
2022-11-30T00:18:50.092Z,10.20
2022-11-30T00:21:17.842Z,10.20
2022-11-30T00:23:46.495Z,10.20
2022-11-30T00:26:17.406Z,10.20
2022-11-30T00:28:46.104Z,10.20
2022-11-30T00:31:16.103Z,10.20
2022-11-30T00:33:44.413Z,10.20
2022-11-30T00:36:18.056Z,10.20
2022-11-30T00:38:46.054Z,10.10
2022-11-30T00:41:14.013Z,10.10
2022-11-30T00:43:41.607Z,10.20
2022-11-30T00:46:09.613Z,10.10
2022-11-30T00:48:39.122Z,10.10
2022-11-30T00:51:08.354Z,10.10
2022-11-30T00:53:36.025Z,10.10
2022-11-30T00:56:03.761Z,10.10
2022-11-30T00:58:31.363Z,10.10
2022-11-30T01:00:58.926Z,10.10
2022-11-30T01:03:26.497Z,10.10
2022-11-30T01:05:54.278Z,10.10
2022-11-30T01:08:21.890Z,10.10
2022-11-30T01:10:53.505Z,10.10
2022-11-30T01:13:21.105Z,10.10
2022-11-30T01:15:48.591Z,10.10
2022-11-30T01:18:16.235Z,10.10
2022-11-30T01:20:43.731Z,10.10
2022-11-30T01:23:11.791Z,10.10
2022-11-30T01:25:39.581Z,10.10
2022-11-30T01:28:09.441Z,10.00
2022-11-30T01:30:37.057Z,10.10
2022-11-30T01:33:05.763Z,10.00
2022-11-30T01:35:33.338Z,10.00
2022-11-30T01:38:00.933Z,10.10
2022-11-30T01:40:28.727Z,10.10
2022-11-30T01:42:56.133Z,10.10
2022-11-30T01:45:23.741Z,10.10
2022-11-30T01:47:55.421Z,10.10
2022-11-30T01:50:41.145Z,10.00
2022-11-30T01:53:10.925Z,10.00
2022-11-30T01:55:46.520Z,10.00
2022-11-30T01:58:26.106Z,10.10
2022-11-30T02:00:53.559Z,10.00
2022-11-30T02:03:55.053Z,10.00
2022-11-30T02:06:25.285Z,10.00
2022-11-30T02:08:54.223Z,10.00
2022-11-30T02:11:23.537Z,10.00
2022-11-30T02:14:06.361Z,10.00
2022-11-30T02:16:52.595Z,10.00
2022-11-30T02:19:57.119Z,10.00
2022-11-30T02:22:50.030Z,10.00
2022-11-30T02:25:23.992Z,9.90
2022-11-30T02:28:06.741Z,9.90
2022-11-30T02:30:37.490Z,9.90
2022-11-30T02:33:15.048Z,9.90
2022-11-30T02:35:53.083Z,9.90
2022-11-30T02:38:24.002Z,9.90
2022-11-30T02:40:51.663Z,9.80
2022-11-30T02:43:21.947Z,9.80
2022-11-30T02:46:01.389Z,9.80
2022-11-30T02:48:36.239Z,9.80
2022-11-30T02:51:07.587Z,9.80
2022-11-30T02:53:35.839Z,9.70
2022-11-30T02:56:03.953Z,9.70
2022-11-30T02:58:32.013Z,9.70
2022-11-30T03:00:59.510Z,9.70
2022-11-30T03:03:26.987Z,9.70
2022-11-30T03:05:54.381Z,9.60
2022-11-30T03:08:22.069Z,9.70
2022-11-30T03:10:49.469Z,9.60
2022-11-30T03:13:17.069Z,9.60
2022-11-30T03:15:44.606Z,9.60
2022-11-30T03:18:12.081Z,9.60
2022-11-30T03:20:42.699Z,9.60
2022-11-30T03:23:10.598Z,9.60
2022-11-30T03:25:38.047Z,9.60
2022-11-30T03:28:05.688Z,9.60
2022-11-30T03:30:33.142Z,9.60
2022-11-30T03:33:00.521Z,9.60
2022-11-30T03:35:28.064Z,9.70
2022-11-30T03:37:55.845Z,9.60
2022-11-30T03:40:23.321Z,9.60
2022-11-30T03:42:50.745Z,9.60
2022-11-30T03:45:18.259Z,9.60
2022-11-30T03:47:45.807Z,9.60
2022-11-30T03:50:13.429Z,9.50
2022-11-30T03:52:41.054Z,9.50
2022-11-30T03:55:08.809Z,9.60
2022-11-30T03:57:36.298Z,9.50
2022-11-30T04:00:05.991Z,9.60
2022-11-30T04:02:44.536Z,9.60
2022-11-30T04:05:12.549Z,9.50
2022-11-30T04:07:40.311Z,9.60
2022-11-30T04:10:08.936Z,9.60
2022-11-30T04:12:36.790Z,9.60
2022-11-30T04:15:04.589Z,9.60
2022-11-30T04:17:32.001Z,9.60
2022-11-30T04:19:59.468Z,9.60
2022-11-30T04:22:26.888Z,9.60
2022-11-30T04:24:54.340Z,9.60
2022-11-30T04:27:21.744Z,9.60
2022-11-30T04:29:49.398Z,9.70
2022-11-30T04:32:17.087Z,9.70
2022-11-30T04:34:45.057Z,9.60
2022-11-30T04:37:12.804Z,9.70
2022-11-30T04:39:40.298Z,9.80
2022-11-30T04:42:07.871Z,9.70
2022-11-30T04:44:35.412Z,9.70
2022-11-30T04:47:02.883Z,9.80
2022-11-30T04:49:30.469Z,9.80
2022-11-30T04:51:58.127Z,9.70
2022-11-30T04:54:25.849Z,9.70
2022-11-30T04:56:53.272Z,9.70
2022-11-30T04:59:20.700Z,9.70
2022-11-30T05:01:48.281Z,9.70
2022-11-30T05:04:15.812Z,9.80
2022-11-30T05:06:43.307Z,9.70
2022-11-30T05:09:10.798Z,9.70
2022-11-30T05:11:38.254Z,9.70
2022-11-30T05:14:05.943Z,9.70
2022-11-30T05:16:33.571Z,9.70
2022-11-30T05:19:01.131Z,9.80
2022-11-30T05:21:28.516Z,9.70
2022-11-30T05:23:56.033Z,9.70
2022-11-30T05:26:23.584Z,9.70
2022-11-30T05:28:51.045Z,9.70
2022-11-30T05:31:18.547Z,9.70
2022-11-30T05:33:53.670Z,9.70
2022-11-30T05:36:21.210Z,9.70
2022-11-30T05:38:49.114Z,9.70
2022-11-30T05:41:16.628Z,9.70
2022-11-30T05:43:44.756Z,9.70
2022-11-30T05:46:12.193Z,9.70
2022-11-30T05:48:39.648Z,9.70
2022-11-30T05:51:07.220Z,9.70
2022-11-30T05:53:34.968Z,9.70
2022-11-30T05:56:07.949Z,9.70
2022-11-30T05:58:35.470Z,9.70
2022-11-30T06:01:03.385Z,9.70
2022-11-30T06:03:32.469Z,9.70
2022-11-30T06:05:59.870Z,9.70
2022-11-30T06:08:28.060Z,9.70
2022-11-30T06:11:00.457Z,9.70
2022-11-30T06:13:29.079Z,9.70
2022-11-30T06:15:59.984Z,9.70
2022-11-30T06:18:27.833Z,9.70
2022-11-30T06:20:59.106Z,9.60
2022-11-30T06:23:26.624Z,9.60
2022-11-30T06:25:54.194Z,9.60
2022-11-30T06:28:21.767Z,9.70
2022-11-30T06:30:49.239Z,9.60
2022-11-30T06:33:16.957Z,9.60
2022-11-30T06:35:48.369Z,9.60
2022-11-30T06:38:16.389Z,9.50
2022-11-30T06:40:43.915Z,9.60
2022-11-30T06:43:11.315Z,9.50
2022-11-30T06:45:38.947Z,9.60
2022-11-30T06:48:06.894Z,9.60
2022-11-30T06:50:34.332Z,9.40
2022-11-30T06:53:01.867Z,9.50
2022-11-30T06:55:32.688Z,9.50
2022-11-30T06:58:09.737Z,9.50
2022-11-30T07:00:38.291Z,9.50
2022-11-30T07:03:06.075Z,9.50
2022-11-30T07:05:39.882Z,9.50
2022-11-30T07:08:07.397Z,9.40
2022-11-30T07:10:38.822Z,9.50
2022-11-30T07:13:09.621Z,9.50
2022-11-30T07:15:37.437Z,9.50
2022-11-30T07:18:05.084Z,9.50
2022-11-30T07:20:33.663Z,9.50
2022-11-30T07:23:22.328Z,9.50
2022-11-30T07:26:09.635Z,9.50
2022-11-30T07:28:39.523Z,9.40
2022-11-30T07:31:22.015Z,9.40
2022-11-30T07:33:50.964Z,9.40
2022-11-30T07:36:20.675Z,9.40
2022-11-30T07:38:48.865Z,9.40
2022-11-30T07:41:16.510Z,9.40
2022-11-30T07:43:44.347Z,9.40
2022-11-30T07:46:13.216Z,9.40
2022-11-30T07:48:41.453Z,9.30
2022-11-30T07:51:14.233Z,9.30
2022-11-30T07:53:42.292Z,9.30
2022-11-30T07:56:15.831Z,9.40
2022-11-30T07:58:44.489Z,9.30
2022-11-30T08:01:14.987Z,9.20
2022-11-30T08:03:43.001Z,9.30
2022-11-30T08:06:13.006Z,9.30
2022-11-30T08:08:43.558Z,9.30
2022-11-30T08:11:13.619Z,9.30
2022-11-30T08:13:41.848Z,9.20
2022-11-30T08:16:15.360Z,9.20
2022-11-30T08:18:43.339Z,9.20
2022-11-30T08:21:13.069Z,9.20
2022-11-30T08:23:43.632Z,9.10
2022-11-30T08:26:11.138Z,9.10
2022-11-30T08:28:39.204Z,9.10
2022-11-30T08:31:10.722Z,9.10
2022-11-30T08:33:38.780Z,9.10
2022-11-30T08:36:08.142Z,9.10
2022-11-30T08:38:36.380Z,9.10
2022-11-30T08:41:04.937Z,9.10
2022-11-30T08:43:32.515Z,9.10
2022-11-30T08:46:01.944Z,9.10
2022-11-30T08:48:29.639Z,9.10
2022-11-30T08:51:06.063Z,9.10
2022-11-30T08:53:34.358Z,9.00
2022-11-30T08:56:04.478Z,9.10
2022-11-30T08:58:34.030Z,9.10
2022-11-30T09:01:25.927Z,9.00
2022-11-30T09:03:59.810Z,9.00
2022-11-30T09:06:30.058Z,9.00
2022-11-30T09:08:59.191Z,9.00
2022-11-30T09:11:31.780Z,9.10
2022-11-30T09:14:01.895Z,9.10
2022-11-30T09:16:29.344Z,9.10
2022-11-30T09:18:56.836Z,9.10
2022-11-30T09:21:25.622Z,9.20
2022-11-30T09:23:55.587Z,9.20
2022-11-30T09:26:25.396Z,9.20
2022-11-30T09:28:54.317Z,9.30
2022-11-30T09:31:27.076Z,9.30
2022-11-30T09:33:57.830Z,9.30
2022-11-30T09:36:27.370Z,9.30
2022-11-30T09:38:56.853Z,9.40
2022-11-30T09:42:04.513Z,9.40
2022-11-30T09:44:49.230Z,9.40
2022-11-30T09:47:38.488Z,9.40
2022-11-30T09:50:18.413Z,9.40
2022-11-30T09:53:11.731Z,9.50
2022-11-30T09:55:42.259Z,9.50
2022-11-30T09:58:23.633Z,9.50
2022-11-30T10:00:51.392Z,9.50
2022-11-30T10:03:22.166Z,9.50
2022-11-30T10:05:59.063Z,9.60
2022-11-30T10:08:32.304Z,9.60
2022-11-30T10:11:39.066Z,9.60
2022-11-30T10:14:27.837Z,9.60
2022-11-30T10:17:20.793Z,9.70
2022-11-30T10:20:10.648Z,9.70
2022-11-30T10:22:54.442Z,9.70
2022-11-30T10:25:37.410Z,9.70
2022-11-30T10:28:46.675Z,9.80
2022-11-30T10:31:13.506Z,9.80
2022-11-30T10:33:46.648Z,9.80
2022-11-30T10:36:41.848Z,9.90
2022-11-30T10:39:31.598Z,10.00
2022-11-30T10:42:21.254Z,10.00
2022-11-30T10:45:05.897Z,10.00
2022-11-30T10:47:37.563Z,10.00
2022-11-30T10:50:07.493Z,10.00
2022-11-30T10:52:48.787Z,10.00
2022-11-30T10:55:25.085Z,10.00
2022-11-30T10:58:29.382Z,10.00
2022-11-30T11:01:10.062Z,10.10
2022-11-30T11:03:38.085Z,10.10
2022-11-30T11:06:22.086Z,10.10
2022-11-30T11:08:50.163Z,10.10
2022-11-30T11:11:35.434Z,10.20
2022-11-30T11:14:17.681Z,10.20
2022-11-30T11:17:04.558Z,10.20
2022-11-30T11:19:40.856Z,10.20
2022-11-30T11:22:24.648Z,10.30
2022-11-30T11:25:15.823Z,10.20
2022-11-30T11:27:45.157Z,10.20
2022-11-30T11:30:24.875Z,10.30
2022-11-30T11:33:11.960Z,10.30
2022-11-30T11:35:50.440Z,10.30
2022-11-30T11:38:27.461Z,10.40
2022-11-30T11:41:07.167Z,10.40
2022-11-30T11:43:56.485Z,10.40
2022-11-30T11:46:25.023Z,10.50
2022-11-30T11:49:02.562Z,10.50
2022-11-30T11:51:39.569Z,10.60
2022-11-30T11:54:25.111Z,10.70
2022-11-30T11:56:56.066Z,10.60
2022-11-30T11:59:32.980Z,10.70
2022-11-30T12:02:18.794Z,10.70
2022-11-30T12:04:51.159Z,10.80
2022-11-30T12:07:28.171Z,10.80
2022-11-30T12:10:43.651Z,10.80
2022-11-30T12:13:01.611Z,10.80
2022-11-30T12:15:34.097Z,10.90
2022-11-30T12:18:24.440Z,10.90
2022-11-30T12:20:55.204Z,10.90
2022-11-30T12:23:44.389Z,10.90
2022-11-30T12:26:17.807Z,11.00
2022-11-30T12:29:03.998Z,11.00
2022-11-30T12:31:57.733Z,11.10
2022-11-30T12:35:02.547Z,11.10
2022-11-30T12:37:49.165Z,11.10
2022-11-30T12:41:07.509Z,11.10
2022-11-30T12:43:44.172Z,11.10
2022-11-30T12:46:26.164Z,11.10
2022-11-30T12:49:02.792Z,11.10
2022-11-30T12:51:44.294Z,11.20
2022-11-30T12:54:57.894Z,11.20
2022-11-30T12:57:36.544Z,11.20
2022-11-30T13:00:11.804Z,11.20
2022-11-30T13:03:10.171Z,11.10
2022-11-30T13:06:00.446Z,11.20
2022-11-30T13:08:44.495Z,11.10
2022-11-30T13:11:21.209Z,11.10
2022-11-30T13:13:55.867Z,11.10
2022-11-30T13:16:25.732Z,11.10
2022-11-30T13:19:02.281Z,11.10
2022-11-30T13:21:36.252Z,11.10
2022-11-30T13:24:39.132Z,11.10
2022-11-30T13:27:24.560Z,11.10
2022-11-30T13:30:04.099Z,11.10
2022-11-30T13:32:57.433Z,11.20
2022-11-30T13:35:27.971Z,11.10
2022-11-30T13:41:07.273Z,11.10
2022-11-30T13:43:48.390Z,11.10
2022-11-30T13:46:20.776Z,11.10
2022-11-30T13:48:48.604Z,11.10
2022-11-30T13:51:36.888Z,11.10
2022-11-30T13:54:42.104Z,11.20
2022-11-30T13:57:24.924Z,11.20
2022-11-30T13:59:53.700Z,11.10
2022-11-30T14:02:33.780Z,11.10
2022-11-30T14:05:19.089Z,11.20
2022-11-30T14:07:52.823Z,11.10
2022-11-30T14:10:34.996Z,11.10
2022-11-30T14:13:05.444Z,11.10
2022-11-30T14:15:39.041Z,11.10
2022-11-30T14:18:09.593Z,11.10
2022-11-30T14:20:44.996Z,11.10
2022-11-30T14:23:15.423Z,11.10
2022-11-30T14:25:49.020Z,11.10
2022-11-30T14:28:20.348Z,11.10
2022-11-30T14:30:48.970Z,11.10
2022-11-30T14:33:22.646Z,11.20
2022-11-30T14:35:56.473Z,11.20
2022-11-30T14:38:30.965Z,11.20
2022-11-30T14:40:59.085Z,11.30
2022-11-30T14:43:26.715Z,11.30
2022-11-30T14:46:05.607Z,11.30
2022-11-30T14:48:34.681Z,11.50
2022-11-30T14:51:04.140Z,11.50
2022-11-30T14:53:34.842Z,11.40
2022-11-30T14:56:21.619Z,11.40
2022-11-30T14:58:55.912Z,11.40
2022-11-30T15:01:30.513Z,11.40
2022-11-30T15:04:05.464Z,11.40
2022-11-30T15:06:34.119Z,11.30
2022-11-30T15:09:03.043Z,11.30
2022-11-30T15:11:31.151Z,11.30
2022-11-30T15:14:09.377Z,11.30
2022-11-30T15:16:37.823Z,11.10
2022-11-30T15:19:25.899Z,11.10
2022-11-30T15:21:54.913Z,11.10
2022-11-30T15:24:23.445Z,11.00
2022-11-30T15:27:08.632Z,11.00
2022-11-30T15:29:42.727Z,10.90
2022-11-30T15:32:23.662Z,10.80
2022-11-30T15:34:57.350Z,10.80
2022-11-30T15:37:34.100Z,10.80
2022-11-30T15:40:05.669Z,10.70
2022-11-30T15:42:43.714Z,10.70
2022-11-30T15:45:22.109Z,10.70
2022-11-30T15:47:50.826Z,10.60
2022-11-30T15:50:39.664Z,10.60
2022-11-30T15:53:31.106Z,10.50
2022-11-30T15:56:09.122Z,10.50
2022-11-30T15:58:45.905Z,10.40
2022-11-30T16:01:17.054Z,10.30
2022-11-30T16:03:59.706Z,10.30
2022-11-30T16:06:29.792Z,10.20
2022-11-30T16:08:59.151Z,10.10
2022-11-30T16:11:27.088Z,10.00
2022-11-30T16:13:54.844Z,10.00
2022-11-30T16:16:28.304Z,9.90
2022-11-30T16:18:55.855Z,9.80
2022-11-30T16:21:23.682Z,9.80
2022-11-30T16:23:51.350Z,9.80
2022-11-30T16:26:49.373Z,9.70
2022-11-30T16:29:08.324Z,9.70
2022-11-30T16:31:37.358Z,9.60
2022-11-30T16:34:05.194Z,9.60
2022-11-30T16:36:37.022Z,9.60
2022-11-30T16:39:04.997Z,9.50
2022-11-30T16:41:35.894Z,9.50
2022-11-30T16:44:13.311Z,9.40
2022-11-30T16:46:40.969Z,9.40
2022-11-30T16:49:08.748Z,9.40
2022-11-30T16:51:36.459Z,9.30
2022-11-30T16:54:04.537Z,9.30
2022-11-30T16:56:32.488Z,9.20
2022-11-30T16:59:00.304Z,9.20
2022-11-30T17:01:35.588Z,9.20
2022-11-30T17:04:24.602Z,9.20
2022-11-30T17:06:58.805Z,9.10
2022-11-30T17:09:30.562Z,8.90
2022-11-30T17:11:58.264Z,9.10
2022-11-30T17:14:26.053Z,9.10
2022-11-30T17:16:53.924Z,9.10
2022-11-30T17:19:25.396Z,9.00
2022-11-30T17:21:53.055Z,9.00
2022-11-30T17:24:20.614Z,9.00
2022-11-30T17:26:48.295Z,9.00
2022-11-30T17:29:16.009Z,9.00
2022-11-30T17:31:43.684Z,9.00
2022-11-30T17:34:11.423Z,9.00
2022-11-30T17:36:41.363Z,9.00
2022-11-30T17:39:09.173Z,9.00
2022-11-30T17:41:36.832Z,9.10
2022-11-30T17:44:04.577Z,9.00
2022-11-30T17:46:32.341Z,9.00
2022-11-30T17:48:59.986Z,8.90
2022-11-30T17:51:28.041Z,9.00
2022-11-30T17:53:56.104Z,9.00
2022-11-30T17:56:24.472Z,8.90
2022-11-30T17:58:52.307Z,8.90
2022-11-30T18:01:22.830Z,8.90
2022-11-30T18:03:51.914Z,8.90
2022-11-30T18:06:20.266Z,8.90
2022-11-30T18:08:48.753Z,8.80
2022-11-30T18:11:23.537Z,8.80
2022-11-30T18:13:53.737Z,8.80
2022-11-30T18:16:23.932Z,8.80
2022-11-30T18:18:52.393Z,8.80
2022-11-30T18:21:21.589Z,8.80
2022-11-30T18:23:50.105Z,8.80
2022-11-30T18:26:20.256Z,8.80
2022-11-30T18:28:55.184Z,8.80
2022-11-30T18:31:23.421Z,8.80
2022-11-30T18:33:59.130Z,8.80
2022-11-30T18:36:27.042Z,8.80
2022-11-30T18:38:55.115Z,8.80
2022-11-30T18:41:26.080Z,8.80
2022-11-30T18:43:53.842Z,8.80
2022-11-30T18:46:21.662Z,8.80
2022-11-30T18:48:51.174Z,8.80
2022-11-30T18:51:21.830Z,8.80
2022-11-30T18:53:50.366Z,8.80
2022-11-30T18:56:21.957Z,8.90
2022-11-30T18:58:49.626Z,8.90
2022-11-30T19:01:21.261Z,8.90
2022-11-30T19:03:53.556Z,8.90
2022-11-30T19:06:21.612Z,8.90
2022-11-30T19:08:49.163Z,8.90
2022-11-30T19:11:17.696Z,8.90
2022-11-30T19:13:45.333Z,8.90
2022-11-30T19:16:15.448Z,8.90
2022-11-30T19:18:45.103Z,8.90
2022-11-30T19:21:17.775Z,8.90
2022-11-30T19:23:46.618Z,8.90
2022-11-30T19:26:14.975Z,8.90
2022-11-30T19:28:43.734Z,8.90
2022-11-30T19:31:19.520Z,8.80
2022-11-30T19:33:50.050Z,8.80
2022-11-30T19:36:20.746Z,8.80
2022-11-30T19:38:51.316Z,8.80
2022-11-30T19:41:20.093Z,8.70
2022-11-30T19:43:53.986Z,8.70
2022-11-30T19:46:25.331Z,8.60
2022-11-30T19:49:00.439Z,8.60
2022-11-30T19:51:29.477Z,8.60
2022-11-30T19:53:57.435Z,8.60
2022-11-30T19:56:25.891Z,8.50
2022-11-30T19:58:56.896Z,9.10
2022-11-30T20:01:28.025Z,8.50
2022-11-30T20:03:57.606Z,8.50
2022-11-30T20:06:28.246Z,8.50
2022-11-30T20:08:57.414Z,8.40
2022-11-30T20:11:25.452Z,8.40
2022-11-30T20:13:53.138Z,8.40
2022-11-30T20:16:22.549Z,8.40
2022-11-30T20:19:00.769Z,8.40
2022-11-30T20:21:34.308Z,8.40
2022-11-30T20:24:05.113Z,8.30
2022-11-30T20:26:40.944Z,8.40
2022-11-30T20:29:13.217Z,8.30
2022-11-30T20:31:41.315Z,8.40
2022-11-30T20:34:10.309Z,8.40
2022-11-30T20:36:38.179Z,8.40
2022-11-30T20:39:06.465Z,8.40
2022-11-30T20:41:34.723Z,8.40
2022-11-30T20:44:02.429Z,8.40
2022-11-30T20:46:35.758Z,8.40
2022-11-30T20:49:10.881Z,8.40
2022-11-30T20:51:38.576Z,8.40
2022-11-30T20:54:07.116Z,8.50
2022-11-30T20:56:36.974Z,8.50
2022-11-30T20:59:13.008Z,8.40
2022-11-30T21:01:42.744Z,8.50
2022-11-30T21:04:10.964Z,8.50
2022-11-30T21:06:38.608Z,8.50
2022-11-30T21:09:06.348Z,8.40
2022-11-30T21:11:33.915Z,8.40
2022-11-30T21:14:01.464Z,8.40
2022-11-30T21:16:29.836Z,8.40
2022-11-30T21:19:01.411Z,8.40
2022-11-30T21:21:33.154Z,8.40
2022-11-30T21:24:06.196Z,8.40
2022-11-30T21:26:38.140Z,8.40
2022-11-30T21:29:12.225Z,8.40
2022-11-30T21:31:40.205Z,8.40
2022-11-30T21:34:08.540Z,8.40
2022-11-30T21:36:36.298Z,8.40
2022-11-30T21:39:09.293Z,8.40
2022-11-30T21:41:39.307Z,8.40
2022-11-30T21:44:09.798Z,8.50
2022-11-30T21:46:38.220Z,8.50
2022-11-30T21:49:06.227Z,8.40
2022-11-30T21:51:34.389Z,8.50
2022-11-30T21:54:05.689Z,8.50
2022-11-30T21:56:35.844Z,8.50
2022-11-30T21:59:08.904Z,8.50
2022-11-30T22:01:41.866Z,8.50
2022-11-30T22:04:11.746Z,8.50
2022-11-30T22:06:41.110Z,8.60
2022-11-30T22:09:16.069Z,8.50
2022-11-30T22:11:45.446Z,8.60
2022-11-30T22:14:16.458Z,8.60
2022-11-30T22:16:45.146Z,8.70
2022-11-30T22:19:12.934Z,8.70
2022-11-30T22:21:44.069Z,8.70
2022-11-30T22:24:14.936Z,8.70
2022-11-30T22:26:44.628Z,8.80
2022-11-30T22:29:17.642Z,8.80
2022-11-30T22:31:47.891Z,8.80
2022-11-30T22:34:15.587Z,8.80
2022-11-30T22:36:44.916Z,8.90
2022-11-30T22:39:20.377Z,8.80
2022-11-30T22:41:54.589Z,8.90
2022-11-30T22:44:24.357Z,8.90
2022-11-30T22:46:52.477Z,8.90
2022-11-30T22:49:21.846Z,8.90
2022-11-30T22:51:50.691Z,8.90
2022-11-30T22:54:18.850Z,8.90
2022-11-30T22:56:46.732Z,8.90
2022-11-30T22:59:15.766Z,8.90
2022-11-30T23:01:46.227Z,8.90
2022-11-30T23:04:16.611Z,9.00
2022-11-30T23:06:45.536Z,9.00
2022-11-30T23:09:15.740Z,9.10
2022-11-30T23:11:43.831Z,9.00
2022-11-30T23:14:12.288Z,9.00
2022-11-30T23:16:40.686Z,9.00
2022-11-30T23:19:09.131Z,9.10
2022-11-30T23:21:41.751Z,9.10
2022-11-30T23:24:14.519Z,9.20
2022-11-30T23:26:43.056Z,9.10
2022-11-30T23:29:13.347Z,9.10
2022-11-30T23:31:43.585Z,9.20
2022-11-30T23:34:14.865Z,9.20
2022-11-30T23:36:42.851Z,9.20
2022-11-30T23:39:16.644Z,9.20
2022-11-30T23:41:44.536Z,9.20
2022-11-30T23:44:12.821Z,9.20
2022-11-30T23:46:40.797Z,9.30
2022-11-30T23:49:08.788Z,9.30
2022-11-30T23:51:36.417Z,9.40
2022-11-30T23:54:04.141Z,9.30
2022-11-30T23:56:31.782Z,9.30
2022-11-30T23:58:59.432Z,9.30
